Time;durP1;ratioP1;P1;durP2;ratioP2;P2;SDS_P1;SDS_P2;PMS_P1;PMS_P2;Temp;Humidity;BMP_temperature;BMP_pressure;BME280_temperature;BME280_humidity;BME280_pressure;Samples;Min_cycle;Max_cycle;Signal;HPM_P1;HPM_P2
2022/01/07 00:01:09;;;;;;;;;10.67;10.33;;;;;7.71;57.28;101329.91;5036885;28;45883;-80
2022/01/07 00:03:34;;;;;;;;;14.33;9.00;;;;;7.68;56.91;101318.47;5055582;28;45968;-80
2022/01/07 00:06:01;;;;;;;;;12.00;9.33;;;;;7.54;57.67;101318.16;5018569;28;45316;-80
2022/01/07 00:08:28;;;;;;;;;8.00;8.00;;;;;7.46;57.57;101299.09;5040982;28;45448;-78
2022/01/07 00:10:53;;;;;;;;;6.33;5.00;;;;;7.43;58.56;101286.66;5036764;28;46355;-79
2022/01/07 00:13:19;;;;;;;;;6.67;6.67;;;;;7.33;59.45;101282.44;5033653;28;46301;-78
2022/01/07 00:15:45;;;;;;;;;11.33;10.00;;;;;7.28;59.38;101282.94;5042929;28;45881;-79
2022/01/07 00:18:11;;;;;;;;;7.33;6.33;;;;;7.30;60.81;101288.22;5035570;28;45494;-80
2022/01/07 00:20:37;;;;;;;;;14.33;10.00;;;;;7.27;60.67;101283.13;5037785;28;45999;-78
2022/01/07 00:23:03;;;;;;;;;6.00;4.67;;;;;7.27;60.69;101275.78;5054130;28;45768;-78
2022/01/07 00:25:29;;;;;;;;;10.67;7.67;;;;;7.15;60.40;101256.19;5045539;28;45464;-78
2022/01/07 00:27:55;;;;;;;;;9.67;9.67;;;;;7.19;60.61;101275.81;5032907;28;45878;-78
2022/01/07 00:30:21;;;;;;;;;10.00;8.67;;;;;7.14;60.67;101279.06;5017336;28;45473;-78
2022/01/07 00:32:46;;;;;;;;;4.67;3.33;;;;;7.10;61.18;101253.16;5033248;28;46743;-78
2022/01/07 00:35:13;;;;;;;;;10.33;9.00;;;;;7.06;61.67;101273.59;5032474;28;45568;-77
2022/01/07 00:37:39;;;;;;;;;10.33;8.67;;;;;6.91;60.97;101240.72;5033866;28;45431;-78
2022/01/07 00:40:07;;;;;;;;;12.00;10.33;;;;;7.06;61.98;101263.53;5047719;28;46032;-78
2022/01/07 00:42:33;;;;;;;;;11.00;10.00;;;;;6.99;61.42;101239.88;5053133;28;47536;-79
2022/01/07 00:44:58;;;;;;;;;9.00;9.00;;;;;7.07;62.17;101267.97;5033498;28;45635;-78
2022/01/07 00:47:24;;;;;;;;;7.33;7.33;;;;;7.06;61.98;101255.34;5054625;28;45466;-79
2022/01/07 00:49:50;;;;;;;;;6.00;6.00;;;;;7.04;61.38;101248.41;5053615;28;46024;-78
2022/01/07 00:52:16;;;;;;;;;11.00;8.33;;;;;7.00;61.44;101255.22;5040044;28;46146;-77
2022/01/07 00:54:42;;;;;;;;;9.67;6.00;;;;;7.01;61.62;101246.03;5040908;28;45354;-78
2022/01/07 00:57:08;;;;;;;;;10.67;9.00;;;;;7.02;62.55;101242.25;5053370;28;45794;-78
2022/01/07 00:59:34;;;;;;;;;11.33;11.33;;;;;7.08;62.59;101252.50;5043823;28;45447;-79
2022/01/07 01:01:59;;;;;;;;;7.00;7.00;;;;;6.95;62.36;101214.00;5030501;28;47904;-80
2022/01/07 01:04:25;;;;;;;;;8.33;7.00;;;;;7.01;62.36;101230.50;5032495;28;45724;-78
2022/01/07 01:06:50;;;;;;;;;10.00;9.00;;;;;7.08;62.61;101247.03;5040380;28;45463;-79
2022/01/07 01:09:16;;;;;;;;;13.33;10.33;;;;;7.09;62.71;101246.00;5038999;28;45577;-80
2022/01/07 01:11:41;;;;;;;;;6.00;6.00;;;;;6.95;61.71;101231.19;5032520;28;45545;-79
2022/01/07 01:14:10;;;;;;;;;10.00;9.33;;;;;7.06;61.93;101233.53;5016306;28;45555;-79
2022/01/07 01:16:36;;;;;;;;;10.00;8.33;;;;;7.03;62.34;101228.44;5053021;28;45408;-81
2022/01/07 01:19:03;;;;;;;;;11.00;7.67;;;;;7.14;62.23;101256.38;5051191;28;45750;-79
2022/01/07 01:21:29;;;;;;;;;12.67;10.67;;;;;7.17;61.65;101237.81;5031761;28;45738;-79
2022/01/07 01:23:54;;;;;;;;;13.33;8.33;;;;;7.22;61.46;101243.56;5030228;28;45752;-80
2022/01/07 01:26:20;;;;;;;;;11.33;10.33;;;;;7.12;61.44;101215.63;5029669;28;45972;-80
2022/01/07 01:28:47;;;;;;;;;13.00;6.33;;;;;7.24;60.35;101230.63;5031782;28;45447;-79
2022/01/07 01:31:17;;;;;;;;;13.00;11.67;;;;;7.32;60.72;101237.06;5041025;28;46295;-78
2022/01/07 01:33:44;;;;;;;;;10.00;8.67;;;;;7.38;61.80;101230.91;5051614;28;45717;-79
2022/01/07 01:36:10;;;;;;;;;11.67;8.33;;;;;7.40;60.65;101232.44;5050163;28;45748;-78
2022/01/07 01:38:37;;;;;;;;;11.00;9.33;;;;;7.26;61.50;101211.34;5049833;28;46157;-77
2022/01/07 01:41:03;;;;;;;;;11.00;8.00;;;;;7.39;62.73;101238.06;5050020;28;46018;-78
2022/01/07 01:43:29;;;;;;;;;10.00;8.67;;;;;7.40;61.42;101237.03;5049155;28;45899;-79
2022/01/07 01:45:54;;;;;;;;;11.33;10.33;;;;;7.42;61.07;101233.13;5034240;28;45771;-77
2022/01/07 01:48:20;;;;;;;;;9.33;7.00;;;;;7.40;60.71;101226.13;5013624;28;46153;-79
2022/01/07 01:50:47;;;;;;;;;6.33;6.33;;;;;7.45;61.22;101231.91;5028914;28;48312;-79
2022/01/07 01:53:14;;;;;;;;;11.67;10.33;;;;;7.43;60.88;101236.69;5042451;28;45727;-80
2022/01/07 01:55:40;;;;;;;;;9.33;8.00;;;;;7.42;61.98;101221.34;5014809;28;45749;-79
2022/01/07 01:58:05;;;;;;;;;7.00;6.67;;;;;7.35;61.47;101212.16;5031884;28;45870;-78
2022/01/07 02:00:31;;;;;;;;;11.33;8.33;;;;;7.41;60.71;101215.03;5014976;28;48025;-79
2022/01/07 02:02:57;;;;;;;;;7.67;7.67;;;;;7.30;60.78;101195.47;5032210;28;45762;-80
2022/01/07 02:05:24;;;;;;;;;10.33;7.00;;;;;7.47;61.36;101223.53;5045878;28;45590;-80
2022/01/07 02:07:50;;;;;;;;;7.00;6.33;;;;;7.50;61.47;101213.13;5045222;28;45481;-80
2022/01/07 02:10:16;;;;;;;;;9.33;8.00;;;;;7.45;60.88;101215.53;5049818;28;45814;-78
2022/01/07 02:12:43;;;;;;;;;6.00;6.00;;;;;7.46;61.67;101211.78;5034042;28;45481;-77
2022/01/07 02:15:11;;;;;;;;;5.67;5.00;;;;;7.52;61.84;101215.69;5041373;28;45715;-77
2022/01/07 02:17:41;;;;;;;;;7.67;6.33;;;;;7.53;61.00;101207.31;5025061;28;45911;-78
2022/01/07 02:20:07;;;;;;;;;9.67;9.67;;;;;7.51;61.48;101192.97;5045201;28;46441;-77
2022/01/07 02:22:33;;;;;;;;;11.33;9.00;;;;;7.56;60.85;101200.63;5035661;28;45410;-76
2022/01/07 02:24:59;;;;;;;;;7.67;6.67;;;;;7.62;61.77;101199.94;5034932;28;45722;-78
2022/01/07 02:27:24;;;;;;;;;6.00;6.00;;;;;7.58;61.02;101193.97;5021471;28;45929;-78
2022/01/07 02:29:51;;;;;;;;;9.33;8.00;;;;;7.57;62.20;101191.44;5046895;28;46488;-78
2022/01/07 02:32:18;;;;;;;;;6.00;5.67;;;;;7.60;62.11;101191.94;5033764;28;45598;-76
2022/01/07 02:34:44;;;;;;;;;12.00;7.00;;;;;7.60;61.67;101197.41;5060396;28;45557;-78
2022/01/07 02:37:12;;;;;;;;;8.67;7.33;;;;;7.62;61.40;101188.16;5063305;28;45636;-78
2022/01/07 02:39:38;;;;;;;;;7.33;7.00;;;;;7.62;61.65;101167.19;5071110;28;46480;-78
2022/01/07 02:42:04;;;;;;;;;6.00;6.00;;;;;7.68;61.71;101171.06;5052512;28;45371;-78
2022/01/07 02:44:30;;;;;;;;;8.67;6.00;;;;;7.64;61.46;101158.81;5054737;28;45788;-78
2022/01/07 02:46:55;;;;;;;;;5.67;5.00;;;;;7.66;61.58;101163.06;5056250;28;45529;-78
2022/01/07 02:49:21;;;;;;;;;10.33;8.00;;;;;7.64;61.82;101167.00;5018191;28;46874;-75
2022/01/07 02:51:47;;;;;;;;;11.33;8.67;;;;;7.66;61.99;101184.06;5033281;28;45578;-76
2022/01/07 02:54:13;;;;;;;;;11.00;11.00;;;;;7.63;61.71;101174.31;5034834;28;45712;-76
2022/01/07 02:56:39;;;;;;;;;8.00;6.33;;;;;7.68;61.52;101177.38;5049199;28;45853;-75
2022/01/07 02:59:06;;;;;;;;;5.00;4.33;;;;;7.71;61.57;101182.50;5035119;28;45759;-82
2022/01/07 03:01:33;;;;;;;;;6.33;4.67;;;;;7.73;61.27;101171.38;5039672;28;45663;-82
2022/01/07 03:03:58;;;;;;;;;7.00;7.00;;;;;7.75;60.81;101177.50;5056130;28;45430;-82
2022/01/07 03:06:24;;;;;;;;;8.33;5.33;;;;;7.76;61.11;101166.41;5038081;28;45420;-81
2022/01/07 03:08:51;;;;;;;;;3.67;3.67;;;;;7.78;60.96;101172.56;5057527;28;46467;-80
2022/01/07 03:11:17;;;;;;;;;5.00;5.00;;;;;7.77;60.98;101159.94;5059245;28;45681;-81
2022/01/07 03:13:44;;;;;;;;;10.00;5.33;;;;;7.65;61.15;101138.66;5042192;28;45918;-80
2022/01/07 03:16:09;;;;;;;;;6.67;5.00;;;;;7.78;60.50;101166.22;5051616;28;45781;-81
2022/01/07 03:18:35;;;;;;;;;7.00;5.33;;;;;7.82;60.68;101164.84;5059784;28;45452;-81
2022/01/07 03:21:01;;;;;;;;;7.00;5.00;;;;;7.84;61.21;101172.84;5030248;28;45730;-83
2022/01/07 03:23:27;;;;;;;;;6.00;5.00;;;;;7.84;60.47;101165.50;5058199;28;45961;-81
2022/01/07 03:25:53;;;;;;;;;6.00;6.00;;;;;7.84;60.95;101159.19;5052488;28;45801;-81
2022/01/07 03:28:20;;;;;;;;;7.00;5.00;;;;;7.87;61.08;101156.09;5047449;28;45733;-80
2022/01/07 03:30:46;;;;;;;;;5.33;5.33;;;;;7.76;61.13;101124.63;5037341;28;45384;-82
2022/01/07 03:33:13;;;;;;;;;6.00;5.00;;;;;7.87;60.71;101148.75;5021967;28;45841;-81
2022/01/07 03:35:38;;;;;;;;;6.33;6.00;;;;;7.79;60.68;101129.72;5046182;28;46308;-82
2022/01/07 03:38:05;;;;;;;;;7.67;5.33;;;;;7.76;60.87;101132.81;5054477;28;46512;-81
2022/01/07 03:40:31;;;;;;;;;6.00;5.00;;;;;7.88;60.56;101146.88;5057492;28;45782;-83
2022/01/07 03:42:57;;;;;;;;;7.00;6.00;;;;;7.89;60.65;101141.25;5051915;28;45475;-81
2022/01/07 03:45:22;;;;;;;;;7.67;5.33;;;;;7.89;60.93;101134.91;5036068;28;46479;-82
2022/01/07 03:47:49;;;;;;;;;7.00;4.00;;;;;7.83;60.69;101139.25;5037531;28;46223;-81
2022/01/07 03:50:17;;;;;;;;;7.33;5.33;;;;;7.69;60.68;101129.09;5035490;28;45863;-82
2022/01/07 03:52:43;;;;;;;;;4.33;4.33;;;;;7.73;60.84;101142.19;5038718;28;45446;-81
2022/01/07 03:55:12;;;;;;;;;5.33;4.00;;;;;7.74;61.08;101143.06;5036337;28;45411;-81
2022/01/07 03:57:38;;;;;;;;;5.33;3.67;;;;;7.75;61.04;101131.09;5046997;28;46574;-82
2022/01/07 04:00:07;;;;;;;;;11.33;5.00;;;;;7.82;61.41;101128.50;5028534;28;45557;-81
2022/01/07 04:02:33;;;;;;;;;5.00;4.00;;;;;7.70;60.69;101108.97;5040964;28;45442;-82
2022/01/07 04:04:58;;;;;;;;;5.33;3.33;;;;;7.85;60.65;101126.25;5038697;28;45703;-81
2022/01/07 04:07:24;;;;;;;;;5.67;5.00;;;;;7.85;60.06;101114.50;5045238;28;45794;-81
2022/01/07 04:09:49;;;;;;;;;7.00;5.33;;;;;7.78;61.23;101098.84;5056584;28;45494;-81
2022/01/07 04:12:15;;;;;;;;;5.33;5.00;;;;;7.83;60.20;101109.22;5042166;28;45580;-82
2022/01/07 04:14:40;;;;;;;;;5.00;3.67;;;;;7.91;60.97;101127.41;5025048;28;45920;-83
2022/01/07 04:17:07;;;;;;;;;4.67;4.67;;;;;7.96;60.01;101122.25;5036107;28;47000;-81
2022/01/07 04:19:33;;;;;;;;;7.00;5.33;;;;;7.92;60.60;101121.75;5058455;28;45434;-80
2022/01/07 04:21:59;;;;;;;;;8.00;7.00;;;;;7.99;60.09;101127.34;5037319;28;45773;-80
2022/01/07 04:24:24;;;;;;;;;6.33;5.00;;;;;7.97;60.60;101123.09;5051765;28;45408;-78
2022/01/07 04:26:51;;;;;;;;;4.67;4.67;;;;;8.01;60.12;101116.22;5047932;28;45426;-82
2022/01/07 04:29:16;;;;;;;;;4.00;3.00;;;;;8.01;60.29;101113.50;5036269;28;45642;-82
2022/01/07 04:31:42;;;;;;;;;5.00;4.00;;;;;8.02;60.20;101123.41;5042615;28;45610;-79
2022/01/07 04:34:07;;;;;;;;;5.00;5.00;;;;;8.03;59.61;101117.75;5034476;28;45854;-81
2022/01/07 04:36:33;;;;;;;;;6.33;5.00;;;;;8.02;59.94;101107.00;5035778;28;46186;-81
2022/01/07 04:38:59;;;;;;;;;6.33;3.67;;;;;7.99;59.87;101110.09;5048788;28;45502;-79
2022/01/07 04:41:24;;;;;;;;;4.33;4.33;;;;;8.04;60.28;101133.13;5041091;28;45365;-82
2022/01/07 04:43:50;;;;;;;;;6.67;4.33;;;;;8.06;60.58;101135.66;5039039;28;45472;-81
2022/01/07 04:46:16;;;;;;;;;4.00;4.00;;;;;8.04;60.15;101133.13;5051437;28;46837;-82
2022/01/07 04:48:41;;;;;;;;;4.33;4.33;;;;;8.07;60.00;101145.56;5037875;28;45345;-81
2022/01/07 04:51:07;;;;;;;;;5.00;5.00;;;;;8.04;60.12;101127.66;5036652;28;45505;-80
2022/01/07 04:53:32;;;;;;;;;4.67;4.00;;;;;8.11;60.75;101138.69;5035916;28;45411;-81
2022/01/07 04:55:59;;;;;;;;;2.00;2.00;;;;;8.10;59.89;101126.06;5035079;28;46469;-81
2022/01/07 04:58:27;;;;;;;;;3.67;3.67;;;;;8.15;59.66;101134.56;5040092;28;45617;-80
2022/01/07 05:00:53;;;;;;;;;6.33;4.00;;;;;8.02;59.80;101104.28;5053600;28;45700;-80
2022/01/07 05:03:18;;;;;;;;;4.00;4.00;;;;;8.09;60.09;101117.00;5025492;28;45922;-80
2022/01/07 05:05:52;;;;;;;;;4.67;3.67;;;;;8.06;60.09;101113.81;5029475;28;46046;-82
2022/01/07 05:08:19;;;;;;;;;5.67;2.33;;;;;8.05;60.63;101109.38;5039121;28;45360;-82
2022/01/07 05:10:44;;;;;;;;;3.67;3.67;;;;;8.04;60.58;101107.66;5034199;28;45501;-81
2022/01/07 05:13:10;;;;;;;;;4.33;3.00;;;;;7.98;60.98;101109.28;5047795;28;45713;-82
2022/01/07 05:15:35;;;;;;;;;4.00;4.00;;;;;7.92;60.61;101096.34;5031722;28;46834;-81
2022/01/07 05:18:02;;;;;;;;;5.00;2.00;;;;;7.82;61.26;101102.03;5045864;28;45438;-81
2022/01/07 05:20:30;;;;;;;;;4.33;2.33;;;;;7.78;61.08;101103.44;5035389;28;45664;-82
2022/01/07 05:22:55;;;;;;;;;4.33;3.00;;;;;7.70;61.83;101107.06;5036306;28;45808;-82
2022/01/07 05:25:21;;;;;;;;;4.00;3.00;;;;;7.64;61.58;101106.97;5049000;28;46325;-81
2022/01/07 05:27:47;;;;;;;;;2.67;2.67;;;;;7.56;62.03;101118.75;5039247;28;45376;-81
2022/01/07 05:30:13;;;;;;;;;4.67;2.33;;;;;7.51;62.90;101111.09;5048314;28;45462;-80
2022/01/07 05:32:39;;;;;;;;;2.67;2.00;;;;;7.47;62.84;101109.78;5047339;28;45524;-83
2022/01/07 05:35:07;;;;;;;;;4.33;3.33;;;;;7.41;63.23;101121.41;5046202;28;46969;-84
2022/01/07 05:37:32;;;;;;;;;3.00;3.00;;;;;7.30;62.29;101091.81;5045763;28;45648;-83
2022/01/07 05:39:58;;;;;;;;;3.67;3.33;;;;;7.35;62.76;101103.00;5040085;28;45398;-85
2022/01/07 05:42:25;;;;;;;;;7.00;3.00;;;;;7.32;62.02;101104.25;5036496;28;45958;-85
2022/01/07 05:44:50;;;;;;;;;4.00;2.33;;;;;7.25;62.63;101098.63;5043751;28;45382;-81
2022/01/07 05:47:16;;;;;;;;;4.00;3.00;;;;;7.25;62.77;101104.09;5054205;28;45431;-83
2022/01/07 05:49:41;;;;;;;;;4.00;3.33;;;;;7.27;62.34;101105.81;5051748;28;45422;-82
2022/01/07 05:52:07;;;;;;;;;3.00;3.00;;;;;7.17;62.63;101109.59;5052864;28;46082;-82
2022/01/07 05:54:33;;;;;;;;;2.33;2.00;;;;;7.20;62.71;101114.69;5037766;28;48309;-82
2022/01/07 05:56:59;;;;;;;;;3.33;3.33;;;;;7.18;63.08;101110.44;5055321;28;45414;-82
2022/01/07 05:59:25;;;;;;;;;5.00;4.00;;;;;7.15;63.83;101108.91;5046126;28;45584;-80
2022/01/07 06:01:50;;;;;;;;;3.67;2.00;;;;;7.10;63.47;101103.16;5057011;28;45752;-82
2022/01/07 06:04:16;;;;;;;;;6.00;3.00;;;;;7.12;63.60;101102.97;5040003;28;46239;-81
2022/01/07 06:06:41;;;;;;;;;4.33;4.33;;;;;7.07;63.33;101103.50;5049315;28;45442;-82
2022/01/07 06:09:07;;;;;;;;;3.00;2.00;;;;;7.06;63.51;101108.09;5045989;28;45601;-82
2022/01/07 06:11:33;;;;;;;;;5.00;3.00;;;;;7.09;63.80;101100.59;5055060;28;45352;-80
2022/01/07 06:13:59;;;;;;;;;2.33;2.00;;;;;7.06;63.53;101110.81;5057273;28;46211;-80
2022/01/07 06:16:24;;;;;;;;;5.67;5.00;;;;;7.08;64.05;101105.22;5045219;28;45447;-79
2022/01/07 06:18:59;;;;;;;;;4.00;4.00;;;;;7.07;63.41;101114.41;5055618;28;46015;-82
2022/01/07 06:21:28;;;;;;;;;5.67;3.00;;;;;7.13;63.21;101118.31;5054290;28;45925;-80
2022/01/07 06:23:54;;;;;;;;;3.00;2.67;;;;;7.09;63.50;101120.53;4998006;28;1307832;-81
2022/01/07 06:26:19;;;;;;;;;4.67;3.67;;;;;7.17;63.84;101115.06;5050339;28;45507;-81
2022/01/07 06:28:45;;;;;;;;;4.33;3.00;;;;;7.18;63.39;101108.56;5057179;28;45408;-81
2022/01/07 06:31:10;;;;;;;;;6.67;3.33;;;;;7.21;63.85;101119.09;5052069;28;45829;-83
2022/01/07 06:33:36;;;;;;;;;4.00;4.00;;;;;7.28;63.48;101112.97;5040265;28;46813;-78
2022/01/07 06:36:02;;;;;;;;;4.33;0.67;;;;;7.29;64.01;101099.16;5056119;28;45445;-77
2022/01/07 06:38:27;;;;;;;;;2.67;2.67;;;;;7.40;64.04;101106.91;5056687;28;45770;-78
2022/01/07 06:40:53;;;;;;;;;2.67;2.00;;;;;7.43;63.64;101105.72;5055496;28;45560;-79
2022/01/07 06:43:18;;;;;;;;;5.33;5.33;;;;;7.46;63.96;101097.16;5053926;28;46113;-78
2022/01/07 06:45:44;;;;;;;;;1.33;1.00;;;;;7.52;64.05;101107.34;5037415;28;45297;-78
2022/01/07 06:48:09;;;;;;;;;6.00;6.00;;;;;7.57;63.83;101104.09;5038560;28;45542;-79
2022/01/07 06:50:35;;;;;;;;;6.33;4.00;;;;;7.60;64.24;101099.13;5038094;28;45841;-78
2022/01/07 06:53:01;;;;;;;;;4.33;4.33;;;;;7.65;63.37;101103.19;5037291;28;47904;-78
2022/01/07 06:55:26;;;;;;;;;3.00;3.00;;;;;7.71;63.26;101102.44;5037500;28;45748;-77
2022/01/07 06:57:51;;;;;;;;;5.00;4.33;;;;;7.76;63.20;101108.22;5054939;28;45745;-77
2022/01/07 07:00:17;;;;;;;;;5.00;5.00;;;;;7.76;63.76;101103.59;5053221;28;46126;-77
2022/01/07 07:02:42;;;;;;;;;3.33;2.33;;;;;7.82;64.03;101115.69;5052078;28;45886;-77
2022/01/07 07:05:08;;;;;;;;;3.33;3.33;;;;;7.84;63.04;101112.78;5050698;28;45605;-77
2022/01/07 07:07:34;;;;;;;;;6.00;3.00;;;;;7.91;63.40;101120.06;5052970;28;45838;-79
2022/01/07 07:09:59;;;;;;;;;4.00;3.00;;;;;7.93;63.05;101120.75;5054807;28;45476;-78
2022/01/07 07:12:25;;;;;;;;;7.00;5.00;;;;;7.93;62.68;101122.59;5029732;28;46530;-76
2022/01/07 07:14:50;;;;;;;;;2.33;2.33;;;;;7.97;62.82;101118.47;5047120;28;45761;-79
2022/01/07 07:17:16;;;;;;;;;4.00;4.00;;;;;8.01;63.14;101127.16;5054216;28;45701;-78
2022/01/07 07:19:41;;;;;;;;;5.67;4.67;;;;;8.07;63.36;101121.81;5018944;28;46018;-77
2022/01/07 07:24:38;;;;;;;;;3.00;3.00;;;;;8.14;63.27;101130.13;5054662;27;45758;-73
2022/01/07 07:27:04;;;;;;;;;6.67;3.00;;;;;8.14;62.91;101119.19;5060649;28;45430;-73
2022/01/07 07:29:29;;;;;;;;;1.67;1.00;;;;;8.17;63.07;101118.81;5059976;28;45626;-77
2022/01/07 07:31:57;;;;;;;;;7.33;4.00;;;;;8.25;63.33;101137.06;5066776;28;46170;-78
2022/01/07 07:34:45;;;;;;;;;4.00;4.00;;;;;8.28;63.42;101136.69;5057944;28;45930;-72
2022/01/07 07:37:13;;;;;;;;;4.67;4.00;;;;;8.26;64.06;101139.59;5070100;27;45819;-73
2022/01/07 07:39:39;;;;;;;;;6.67;3.67;;;;;8.35;64.50;101136.78;5068105;28;46034;-72
2022/01/07 07:42:05;;;;;;;;;4.00;4.00;;;;;8.35;64.46;101143.09;5072409;28;45852;-78
2022/01/07 07:44:30;;;;;;;;;4.00;4.00;;;;;8.34;64.81;101151.47;5071357;28;45278;-78
2022/01/07 07:46:58;;;;;;;;;7.00;3.33;;;;;8.36;64.44;101144.78;5068087;28;45800;-79
2022/01/07 07:50:12;;;;;;;;;5.00;4.00;;;;;8.36;64.33;101147.53;5069755;28;45889;-78
2022/01/07 07:52:37;;;;;;;;;5.67;4.67;;;;;8.35;65.10;101123.13;5047044;28;46378;-73
2022/01/07 07:55:03;;;;;;;;;5.33;4.33;;;;;8.37;65.11;101129.25;5069993;28;45493;-77
2022/01/07 07:57:30;;;;;;;;;7.33;3.67;;;;;8.39;64.52;101119.00;5071793;28;45713;-76
2022/01/07 07:59:56;;;;;;;;;5.33;5.00;;;;;8.38;64.77;101137.25;5071321;28;45407;-72
2022/01/07 08:02:22;;;;;;;;;5.67;5.33;;;;;8.41;65.15;101144.25;5071420;28;46008;-72
2022/01/07 08:04:47;;;;;;;;;5.33;3.00;;;;;8.41;64.99;101146.97;5063662;28;45816;-78
2022/01/07 08:07:16;;;;;;;;;4.00;4.00;;;;;8.41;65.12;101144.25;5060677;27;45567;-78
2022/01/07 08:09:42;;;;;;;;;4.67;3.33;;;;;8.41;65.87;101149.69;5072534;28;45834;-78
2022/01/07 08:12:26;;;;;;;;;6.00;3.00;;;;;8.40;65.70;101161.69;5071226;28;46995;-78
2022/01/07 08:17:36;;;;;;;;;4.00;4.00;;;;;8.40;66.14;101158.97;5061993;28;45942;-78
2022/01/07 08:20:02;;;;;;;;;5.00;4.00;;;;;8.37;65.74;101148.38;5068184;28;45852;-74
2022/01/07 08:22:28;;;;;;;;;12.33;10.67;;;;;8.42;65.83;101152.25;5066525;28;47085;-79
2022/01/07 08:24:53;;;;;;;;;4.00;4.00;;;;;8.45;64.85;101151.06;5054646;28;45586;-77
2022/01/07 08:27:22;;;;;;;;;5.00;3.67;;;;;8.49;65.62;101146.94;5062708;28;45497;-77
2022/01/07 08:29:49;;;;;;;;;9.00;6.00;;;;;8.50;65.21;101151.34;5070686;28;45745;-78
2022/01/07 08:34:58;;;;;;;;;3.00;3.00;;;;;8.50;64.46;101145.88;5071139;28;45382;-73
2022/01/07 08:37:26;;;;;;;;;3.00;2.00;;;;;8.51;65.30;101133.09;5049915;28;45933;-77
2022/01/07 08:39:53;;;;;;;;;3.00;2.00;;;;;8.51;64.56;101139.41;5049628;28;45827;-78
2022/01/07 08:42:19;;;;;;;;;2.67;2.00;;;;;8.51;64.65;101125.72;5071772;28;45718;-78
2022/01/07 08:44:45;;;;;;;;;3.67;1.00;;;;;8.51;64.37;101123.00;5068846;28;45497;-78
2022/01/07 08:47:10;;;;;;;;;4.00;3.00;;;;;8.46;64.38;101106.31;5066893;28;45449;-73
2022/01/07 08:49:36;;;;;;;;;2.00;1.00;;;;;8.51;63.91;101105.75;5073090;28;45683;-77
2022/01/07 08:52:01;;;;;;;;;3.00;3.00;;;;;8.53;64.11;101099.03;5071366;28;45951;-73
2022/01/07 08:54:26;;;;;;;;;3.00;1.67;;;;;8.58;63.77;101085.69;5071146;28;45328;-72
2022/01/07 08:56:52;;;;;;;;;2.33;1.33;;;;;8.62;63.86;101103.41;5048545;28;45425;-73
2022/01/07 08:59:17;;;;;;;;;2.00;2.00;;;;;8.64;63.84;101106.78;5070663;28;45845;-73
2022/01/07 09:01:43;;;;;;;;;0.33;0.33;;;;;8.68;64.00;101117.34;5071278;28;45628;-71
2022/01/07 09:04:08;;;;;;;;;3.67;3.33;;;;;8.69;63.56;101114.44;5069690;28;45876;-72
2022/01/07 09:06:34;;;;;;;;;2.33;1.00;;;;;8.74;62.71;101131.16;5067564;28;45700;-72
2022/01/07 09:08:59;;;;;;;;;3.00;1.00;;;;;8.81;63.16;101140.28;5072416;28;45918;-78
2022/01/07 09:11:25;;;;;;;;;2.00;2.00;;;;;8.88;63.25;101123.97;5053514;28;45803;-77
2022/01/07 09:13:52;;;;;;;;;3.00;0.00;;;;;8.97;62.07;101133.78;5071145;28;45664;-73
2022/01/07 09:16:18;;;;;;;;;2.00;2.00;;;;;9.11;62.49;101144.91;5066217;28;45713;-73
2022/01/07 09:18:43;;;;;;;;;4.00;1.67;;;;;9.21;62.08;101133.66;5074291;28;45552;-77
2022/01/07 09:21:09;;;;;;;;;1.00;1.00;;;;;9.29;62.20;101130.84;5052388;28;48149;-72
2022/01/07 09:23:34;;;;;;;;;3.00;1.67;;;;;9.40;61.28;101137.69;5064776;28;45839;-73
2022/01/07 09:26:00;;;;;;;;;0.33;0.00;;;;;9.45;61.14;101141.56;5065815;28;45737;-77
2022/01/07 09:28:25;;;;;;;;;2.00;0.00;;;;;9.52;60.65;101138.88;5071291;28;45877;-77
2022/01/07 09:30:50;;;;;;;;;0.00;0.00;;;;;9.60;61.04;101143.44;5067947;28;46026;-73
2022/01/07 09:33:16;;;;;;;;;1.00;1.00;;;;;9.88;60.11;101130.69;5069242;28;45474;-79
2022/01/07 09:35:41;;;;;;;;;1.00;1.00;;;;;10.40;59.38;101147.00;5067305;28;45363;-73
2022/01/07 09:38:07;;;;;;;;;3.33;3.33;;;;;10.49;57.66;101143.06;5038102;28;45771;-72
2022/01/07 09:40:32;;;;;;;;;1.67;1.00;;;;;10.57;57.42;101142.91;5070109;27;45872;-73
2022/01/07 09:43:07;;;;;;;;;2.33;2.00;;;;;10.48;57.93;101138.63;5051353;28;45437;-77
2022/01/07 09:45:34;;;;;;;;;6.67;3.33;;;;;10.43;57.93;101132.88;5070866;28;45632;-77
2022/01/07 09:48:03;;;;;;;;;3.67;3.00;;;;;10.40;57.76;101139.63;5048740;28;45995;-74
2022/01/07 09:50:31;;;;;;;;;2.00;2.00;;;;;10.31;58.45;101154.47;5064856;28;46781;-73
2022/01/07 09:52:56;;;;;;;;;4.00;3.00;;;;;10.23;58.17;101135.44;5071188;28;45668;-77
2022/01/07 09:55:22;;;;;;;;;4.00;2.33;;;;;10.71;57.79;101135.63;5072131;28;45402;-77
2022/01/07 09:57:48;;;;;;;;;8.00;5.00;;;;;11.39;55.68;101137.72;5071161;28;45414;-78
2022/01/07 10:00:13;;;;;;;;;9.00;4.33;;;;;12.11;54.97;101132.66;5072488;28;46413;-78
2022/01/07 10:03:08;;;;;;;;;8.00;7.00;;;;;12.95;52.98;101133.03;5073431;28;45830;-79
2022/01/07 10:05:45;;;;;;;;;3.00;2.00;;;;;13.80;50.67;101125.72;5053061;28;45600;-78
2022/01/07 10:08:29;;;;;;;;;3.00;2.33;;;;;14.57;48.72;101126.44;5074069;28;45886;-73
2022/01/07 10:11:20;;;;;;;;;1.67;1.67;;;;;15.27;47.41;101122.56;5071079;28;46183;-72
2022/01/07 10:14:22;;;;;;;;;2.33;2.33;;;;;15.46;46.17;101139.09;5069781;28;45918;-79
2022/01/07 10:16:59;;;;;;;;;2.67;2.00;;;;;15.21;46.10;101139.19;5069432;27;45432;-79
2022/01/07 10:19:46;;;;;;;;;1.67;1.67;;;;;14.88;46.50;101137.63;5069643;28;46108;-78
2022/01/07 10:22:14;;;;;;;;;1.33;1.00;;;;;14.59;47.16;101140.84;5050366;28;45787;-77
2022/01/07 10:24:56;;;;;;;;;2.00;0.33;;;;;14.46;46.84;101132.69;5061280;28;45996;-79
2022/01/07 10:27:23;;;;;;;;;1.00;1.00;;;;;14.29;47.08;101113.91;5069083;28;45383;-74
2022/01/07 10:29:49;;;;;;;;;4.33;2.33;;;;;14.54;47.16;101120.53;5059026;28;45383;-72
2022/01/07 10:32:25;;;;;;;;;3.00;2.00;;;;;14.61;46.86;101108.38;5063442;28;45489;-77
2022/01/07 10:35:11;;;;;;;;;3.00;1.33;;;;;14.87;47.08;101102.81;5051973;27;45837;-74
2022/01/07 10:37:45;;;;;;;;;1.33;0.00;;;;;14.92;46.25;101086.41;5073002;28;45578;-73
2022/01/07 10:40:22;;;;;;;;;2.00;0.67;;;;;14.74;46.93;101098.28;5060312;28;46208;-77
2022/01/07 10:42:48;;;;;;;;;0.33;0.00;;;;;14.55;46.17;101100.13;5076223;28;46176;-79
2022/01/07 10:45:18;;;;;;;;;0.67;0.67;;;;;14.43;46.52;101105.53;5078189;28;45833;-78
2022/01/07 10:47:50;;;;;;;;;0.00;0.00;;;;;14.18;46.92;101098.13;5049025;28;45418;-78
2022/01/07 10:50:23;;;;;;;;;0.00;0.00;;;;;14.00;46.76;101104.41;5066486;28;45787;-79
2022/01/07 10:52:50;;;;;;;;;1.00;1.00;;;;;13.72;47.98;101100.09;5076374;28;46302;-79
2022/01/07 10:55:24;;;;;;;;;0.00;0.00;;;;;13.52;48.41;101114.00;5091095;27;45451;-78
2022/01/07 10:57:53;;;;;;;;;0.00;0.00;;;;;13.55;48.03;101101.72;5066813;27;45859;-78
2022/01/07 11:00:26;;;;;;;;;1.00;1.00;;;;;13.38;48.73;101113.22;5082404;28;45341;-77
2022/01/07 11:02:52;;;;;;;;;0.00;0.00;;;;;13.31;48.99;101106.00;5078550;28;46197;-79
2022/01/07 11:05:18;;;;;;;;;2.00;1.00;;;;;13.13;47.76;101113.09;5044907;28;45773;-73
2022/01/07 11:07:43;;;;;;;;;0.33;0.00;;;;;12.93;48.96;101104.88;5072725;28;45540;-79
2022/01/07 11:10:09;;;;;;;;;0.00;0.00;;;;;12.75;48.72;101102.78;5074441;28;45379;-73
2022/01/07 11:12:35;;;;;;;;;1.00;1.00;;;;;12.72;49.72;101103.22;5074292;28;45750;-73
2022/01/07 11:15:03;;;;;;;;;0.00;0.00;;;;;12.73;49.84;101099.41;5073524;28;45432;-80
2022/01/07 11:17:29;;;;;;;;;0.00;0.00;;;;;12.59;49.61;101093.09;5064973;28;45602;-78
2022/01/07 11:19:57;;;;;;;;;0.00;0.00;;;;;12.49;49.52;101078.94;5067519;28;46455;-80
2022/01/07 11:22:27;;;;;;;;;0.00;0.00;;;;;12.41;50.08;101071.75;5045656;28;45862;-79
2022/01/07 11:24:56;;;;;;;;;2.67;2.33;;;;;12.42;50.36;101092.66;5070010;28;45857;-74
2022/01/07 11:27:27;;;;;;;;;0.00;0.00;;;;;12.51;50.08;101096.06;5075996;28;45423;-78
2022/01/07 11:30:13;;;;;;;;;3.33;1.00;;;;;12.55;50.53;101097.31;5073918;28;45979;-78
2022/01/07 11:32:47;;;;;;;;;1.67;1.00;;;;;12.66;50.01;101101.31;5069250;28;45818;-75
2022/01/07 11:35:41;;;;;;;;;2.00;1.00;;;;;12.69;49.97;101087.13;5078435;28;45782;-78
2022/01/07 11:38:34;;;;;;;;;0.00;0.00;;;;;12.74;50.35;101089.25;5047873;28;45668;-73